Strathmore (D.J. Murray) Airport

CDJ5 · 艾伯塔, 加拿大

罗盘
风向 的 风向 320°
风: 8 kt, 3 beaufort

添加一条跑道以查看侧风和逆风信息。

添置 跑道
0 ft 1.000 2.000 3.000 4.000 5.000
没有云
METAR CYBW 291700Z AUTO 32008KT 9SM CLR M28/M31 A3032 RMK SLP411

METAR Strathmore (D.J. Murray) Airport - CDJ5

Strathmore (D.J. Murray) Airport是,加拿大中的小机场。 视场标高为3.150 ft。 该领域的国际民航组织标志是CDJ5.

这份报告是针对2023年1月29日 10:00, 当地时间在Calgary / Springbank Airport进行的。

机场观察

风向为320°,速度为8 kt。

可见度为9 mi。

有没有云。 没有观察到天花板。

温度为-28 °C,阵风为-42 °C。 露点为-31 °C,相对湿度为75%。 海平面上的气压为30,32 inHg (QNH)。

白天

今天,太阳从08:15升起,在17:19降落。 这适用于Strathmore (D.J. Murray) Airport,世界夏令时可能有所不同。 当地时间与世界标准时间之间的时差为-7 小时。 当前,没有夏令时有效。

公司介绍

我们没有关于这个机场的公司信息。

体会

到Vliegles.nl去找飞行课程,跳伞和其他飞行体验。 浏览页面,了解Strathmore (D.J. Murray) Airport附近所有可用的活动。 你也可以使用搜索功能来寻找你所在地附近的特定飞行课程、跳伞或其他飞行体验。

乌云

- CLR 没有云

温度 & 天气

温度 -28 °C
露点 -31 °C
相对湿度 75%
风寒 -42 °C
Kp-index 2 (0-9)

评论

SLP411海平面压力为30,74 inHg (30,74 inHg)

白天

日出
08:18
中午
12:50
日落
17:22 (6:19)

小工具

你想在你的网站上有一个关于Strathmore (D.J. Murray) Airport的当前航空天气(METAR)的小部件吗?

显示HTML代码

我们和第三方通过cookies跟踪您在我们网站上的互联网行为。如果你继续,我们认为你同意我们的饼干政策